sensor_id;sensor_type;location;lat;lon;timestamp;P1;durP1;ratioP1;P2;durP2;ratioP2
5297;SDS011;14738;42.668;23.250;2024-01-25T00:00:14;10.57;;;7.97;;
5297;SDS011;14738;42.668;23.250;2024-01-25T00:02:40;14.20;;;11.13;;
5297;SDS011;14738;42.668;23.250;2024-01-25T00:05:06;13.90;;;10.77;;
5297;SDS011;14738;42.668;23.250;2024-01-25T00:07:32;16.30;;;12.00;;
5297;SDS011;14738;42.668;23.250;2024-01-25T00:09:57;15.30;;;11.57;;
5297;SDS011;14738;42.668;23.250;2024-01-25T00:12:23;18.37;;;12.70;;
5297;SDS011;14738;42.668;23.250;2024-01-25T00:14:48;18.57;;;13.40;;
5297;SDS011;14738;42.668;23.250;2024-01-25T00:17:13;22.50;;;14.53;;
5297;SDS011;14738;42.668;23.250;2024-01-25T00:19:39;19.30;;;14.20;;
5297;SDS011;14738;42.668;23.250;2024-01-25T00:22:06;18.30;;;13.63;;
5297;SDS011;14738;42.668;23.250;2024-01-25T00:24:32;19.40;;;15.23;;
5297;SDS011;14738;42.668;23.250;2024-01-25T00:26:57;24.37;;;15.53;;
5297;SDS011;14738;42.668;23.250;2024-01-25T00:29:23;25.73;;;16.80;;
5297;SDS011;14738;42.668;23.250;2024-01-25T00:31:48;26.30;;;15.73;;
5297;SDS011;14738;42.668;23.250;2024-01-25T00:34:14;20.07;;;15.50;;
5297;SDS011;14738;42.668;23.250;2024-01-25T00:36:40;23.53;;;16.13;;
5297;SDS011;14738;42.668;23.250;2024-01-25T00:39:05;19.80;;;14.00;;
5297;SDS011;14738;42.668;23.250;2024-01-25T00:41:31;21.87;;;13.93;;
5297;SDS011;14738;42.668;23.250;2024-01-25T00:43:58;12.83;;;9.73;;
5297;SDS011;14738;42.668;23.250;2024-01-25T00:46:24;10.27;;;7.63;;
5297;SDS011;14738;42.668;23.250;2024-01-25T00:48:49;15.27;;;11.90;;
5297;SDS011;14738;42.668;23.250;2024-01-25T00:51:15;14.23;;;12.03;;
5297;SDS011;14738;42.668;23.250;2024-01-25T00:53:46;17.43;;;13.03;;
5297;SDS011;14738;42.668;23.250;2024-01-25T00:56:11;16.23;;;13.07;;
5297;SDS011;14738;42.668;23.250;2024-01-25T00:58:37;17.73;;;13.00;;
5297;SDS011;14738;42.668;23.250;2024-01-25T01:01:03;13.77;;;11.00;;
5297;SDS011;14738;42.668;23.250;2024-01-25T01:03:28;17.23;;;13.17;;
5297;SDS011;14738;42.668;23.250;2024-01-25T01:05:54;13.43;;;10.27;;
5297;SDS011;14738;42.668;23.250;2024-01-25T01:08:20;8.67;;;7.40;;
5297;SDS011;14738;42.668;23.250;2024-01-25T01:10:46;4.40;;;4.00;;
5297;SDS011;14738;42.668;23.250;2024-01-25T01:13:11;4.03;;;3.10;;
5297;SDS011;14738;42.668;23.250;2024-01-25T01:15:37;2.80;;;2.17;;
5297;SDS011;14738;42.668;23.250;2024-01-25T01:18:02;1.53;;;1.43;;
5297;SDS011;14738;42.668;23.250;2024-01-25T01:20:30;1.67;;;1.57;;
5297;SDS011;14738;42.668;23.250;2024-01-25T01:22:55;2.80;;;2.60;;
5297;SDS011;14738;42.668;23.250;2024-01-25T01:25:21;5.93;;;4.40;;
5297;SDS011;14738;42.668;23.250;2024-01-25T01:27:47;11.07;;;8.73;;
5297;SDS011;14738;42.668;23.250;2024-01-25T01:30:12;8.90;;;7.83;;
5297;SDS011;14738;42.668;23.250;2024-01-25T01:32:38;3.37;;;3.07;;
5297;SDS011;14738;42.668;23.250;2024-01-25T01:35:03;2.70;;;2.50;;
5297;SDS011;14738;42.668;23.250;2024-01-25T01:37:29;2.40;;;2.10;;
5297;SDS011;14738;42.668;23.250;2024-01-25T01:39:54;2.07;;;1.80;;
5297;SDS011;14738;42.668;23.250;2024-01-25T01:42:21;1.97;;;1.70;;
5297;SDS011;14738;42.668;23.250;2024-01-25T01:44:47;1.90;;;1.80;;
5297;SDS011;14738;42.668;23.250;2024-01-25T01:47:15;1.90;;;1.80;;
5297;SDS011;14738;42.668;23.250;2024-01-25T01:49:40;1.93;;;1.70;;
5297;SDS011;14738;42.668;23.250;2024-01-25T01:52:06;2.17;;;1.97;;
5297;SDS011;14738;42.668;23.250;2024-01-25T01:54:33;5.03;;;1.90;;
5297;SDS011;14738;42.668;23.250;2024-01-25T01:56:58;2.70;;;2.17;;
5297;SDS011;14738;42.668;23.250;2024-01-25T01:59:24;1.70;;;1.60;;
5297;SDS011;14738;42.668;23.250;2024-01-25T02:01:51;1.77;;;1.67;;
5297;SDS011;14738;42.668;23.250;2024-01-25T02:04:17;1.63;;;1.53;;
5297;SDS011;14738;42.668;23.250;2024-01-25T02:06:42;1.33;;;1.33;;
5297;SDS011;14738;42.668;23.250;2024-01-25T02:09:09;1.43;;;1.40;;
5297;SDS011;14738;42.668;23.250;2024-01-25T02:11:35;1.67;;;1.10;;
5297;SDS011;14738;42.668;23.250;2024-01-25T02:14:00;1.50;;;1.50;;
5297;SDS011;14738;42.668;23.250;2024-01-25T02:16:25;1.07;;;1.07;;
5297;SDS011;14738;42.668;23.250;2024-01-25T02:18:51;1.20;;;1.20;;
5297;SDS011;14738;42.668;23.250;2024-01-25T02:21:19;1.10;;;1.10;;
5297;SDS011;14738;42.668;23.250;2024-01-25T02:23:44;1.00;;;1.00;;
5297;SDS011;14738;42.668;23.250;2024-01-25T02:26:10;1.13;;;1.00;;
5297;SDS011;14738;42.668;23.250;2024-01-25T02:28:35;1.23;;;1.20;;
5297;SDS011;14738;42.668;23.250;2024-01-25T02:31:01;1.30;;;1.20;;
5297;SDS011;14738;42.668;23.250;2024-01-25T02:33:27;1.70;;;0.93;;
5297;SDS011;14738;42.668;23.250;2024-01-25T02:35:52;1.17;;;1.07;;
5297;SDS011;14738;42.668;23.250;2024-01-25T02:38:18;1.00;;;1.00;;
5297;SDS011;14738;42.668;23.250;2024-01-25T02:40:43;0.80;;;0.80;;
5297;SDS011;14738;42.668;23.250;2024-01-25T02:43:09;1.00;;;1.00;;
5297;SDS011;14738;42.668;23.250;2024-01-25T02:45:34;0.87;;;0.87;;
5297;SDS011;14738;42.668;23.250;2024-01-25T02:47:59;1.43;;;0.90;;
5297;SDS011;14738;42.668;23.250;2024-01-25T02:50:27;1.00;;;1.00;;
5297;SDS011;14738;42.668;23.250;2024-01-25T02:52:52;1.27;;;1.17;;
5297;SDS011;14738;42.668;23.250;2024-01-25T02:55:21;1.10;;;1.10;;
5297;SDS011;14738;42.668;23.250;2024-01-25T02:57:46;0.80;;;0.80;;
5297;SDS011;14738;42.668;23.250;2024-01-25T03:00:12;0.97;;;0.87;;
5297;SDS011;14738;42.668;23.250;2024-01-25T03:02:38;1.07;;;1.07;;
5297;SDS011;14738;42.668;23.250;2024-01-25T03:05:03;1.07;;;1.07;;
5297;SDS011;14738;42.668;23.250;2024-01-25T03:07:29;1.20;;;1.10;;
5297;SDS011;14738;42.668;23.250;2024-01-25T03:09:54;1.33;;;1.10;;
5297;SDS011;14738;42.668;23.250;2024-01-25T03:12:20;2.00;;;0.93;;
5297;SDS011;14738;42.668;23.250;2024-01-25T03:14:45;0.87;;;0.87;;
5297;SDS011;14738;42.668;23.250;2024-01-25T03:17:10;1.10;;;1.10;;
5297;SDS011;14738;42.668;23.250;2024-01-25T03:19:37;1.27;;;1.17;;
5297;SDS011;14738;42.668;23.250;2024-01-25T03:22:03;1.17;;;0.80;;
5297;SDS011;14738;42.668;23.250;2024-01-25T03:24:28;0.90;;;0.90;;
5297;SDS011;14738;42.668;23.250;2024-01-25T03:26:54;0.90;;;0.90;;
5297;SDS011;14738;42.668;23.250;2024-01-25T03:29:19;0.90;;;0.90;;
5297;SDS011;14738;42.668;23.250;2024-01-25T03:31:44;1.03;;;0.93;;
5297;SDS011;14738;42.668;23.250;2024-01-25T03:34:10;0.93;;;0.93;;
5297;SDS011;14738;42.668;23.250;2024-01-25T03:36:35;0.80;;;0.80;;
5297;SDS011;14738;42.668;23.250;2024-01-25T03:39:03;1.03;;;1.03;;
5297;SDS011;14738;42.668;23.250;2024-01-25T03:41:31;1.00;;;1.00;;
5297;SDS011;14738;42.668;23.250;2024-01-25T03:43:57;0.90;;;0.90;;
5297;SDS011;14738;42.668;23.250;2024-01-25T03:46:22;1.10;;;1.10;;
5297;SDS011;14738;42.668;23.250;2024-01-25T03:48:47;4.10;;;1.40;;
5297;SDS011;14738;42.668;23.250;2024-01-25T03:51:13;1.97;;;1.87;;
5297;SDS011;14738;42.668;23.250;2024-01-25T03:53:38;2.00;;;1.90;;
5297;SDS011;14738;42.668;23.250;2024-01-25T03:56:09;1.50;;;1.40;;
5297;SDS011;14738;42.668;23.250;2024-01-25T03:58:36;1.40;;;1.40;;
5297;SDS011;14738;42.668;23.250;2024-01-25T04:01:02;1.73;;;1.63;;
5297;SDS011;14738;42.668;23.250;2024-01-25T04:03:28;1.33;;;1.33;;
5297;SDS011;14738;42.668;23.250;2024-01-25T04:05:53;1.47;;;1.37;;
5297;SDS011;14738;42.668;23.250;2024-01-25T04:08:18;1.40;;;1.30;;
5297;SDS011;14738;42.668;23.250;2024-01-25T04:10:44;1.40;;;1.30;;
5297;SDS011;14738;42.668;23.250;2024-01-25T04:13:09;1.20;;;1.10;;
5297;SDS011;14738;42.668;23.250;2024-01-25T04:15:37;2.13;;;1.00;;
5297;SDS011;14738;42.668;23.250;2024-01-25T04:18:02;1.60;;;1.30;;
5297;SDS011;14738;42.668;23.250;2024-01-25T04:20:28;1.20;;;1.20;;
5297;SDS011;14738;42.668;23.250;2024-01-25T04:22:53;2.03;;;1.47;;
5297;SDS011;14738;42.668;23.250;2024-01-25T04:25:19;1.80;;;1.33;;
5297;SDS011;14738;42.668;23.250;2024-01-25T04:27:44;1.10;;;1.00;;
5297;SDS011;14738;42.668;23.250;2024-01-25T04:30:09;1.67;;;1.57;;
5297;SDS011;14738;42.668;23.250;2024-01-25T04:32:35;1.40;;;1.30;;
5297;SDS011;14738;42.668;23.250;2024-01-25T04:35:00;3.80;;;1.70;;
5297;SDS011;14738;42.668;23.250;2024-01-25T04:37:26;1.70;;;1.60;;
5297;SDS011;14738;42.668;23.250;2024-01-25T04:39:51;3.70;;;1.10;;
5297;SDS011;14738;42.668;23.250;2024-01-25T04:42:17;1.57;;;1.47;;
5297;SDS011;14738;42.668;23.250;2024-01-25T04:44:42;1.20;;;1.20;;
5297;SDS011;14738;42.668;23.250;2024-01-25T04:47:08;1.10;;;1.10;;
5297;SDS011;14738;42.668;23.250;2024-01-25T04:49:34;1.20;;;1.10;;
5297;SDS011;14738;42.668;23.250;2024-01-25T04:52:00;1.20;;;1.10;;
5297;SDS011;14738;42.668;23.250;2024-01-25T04:54:25;1.23;;;1.23;;
5297;SDS011;14738;42.668;23.250;2024-01-25T04:56:51;1.33;;;1.23;;
5297;SDS011;14738;42.668;23.250;2024-01-25T04:59:16;1.30;;;1.30;;
5297;SDS011;14738;42.668;23.250;2024-01-25T05:01:42;1.40;;;1.30;;
5297;SDS011;14738;42.668;23.250;2024-01-25T05:04:07;1.80;;;1.20;;
5297;SDS011;14738;42.668;23.250;2024-01-25T05:06:32;1.10;;;1.10;;
5297;SDS011;14738;42.668;23.250;2024-01-25T05:08:58;1.00;;;1.00;;
5297;SDS011;14738;42.668;23.250;2024-01-25T05:11:23;1.40;;;1.40;;
5297;SDS011;14738;42.668;23.250;2024-01-25T05:13:48;1.37;;;1.27;;
5297;SDS011;14738;42.668;23.250;2024-01-25T05:16:14;2.53;;;1.93;;
5297;SDS011;14738;42.668;23.250;2024-01-25T05:18:40;1.40;;;1.30;;
5297;SDS011;14738;42.668;23.250;2024-01-25T05:21:05;1.87;;;1.70;;
5297;SDS011;14738;42.668;23.250;2024-01-25T05:23:31;1.30;;;1.20;;
5297;SDS011;14738;42.668;23.250;2024-01-25T05:25:56;1.50;;;1.40;;
5297;SDS011;14738;42.668;23.250;2024-01-25T05:28:22;1.50;;;1.40;;
5297;SDS011;14738;42.668;23.250;2024-01-25T05:30:49;1.23;;;1.23;;
5297;SDS011;14738;42.668;23.250;2024-01-25T05:33:14;1.63;;;1.53;;
5297;SDS011;14738;42.668;23.250;2024-01-25T05:35:40;1.40;;;1.40;;
5297;SDS011;14738;42.668;23.250;2024-01-25T05:38:05;1.50;;;1.40;;
5297;SDS011;14738;42.668;23.250;2024-01-25T05:40:31;3.57;;;1.33;;
5297;SDS011;14738;42.668;23.250;2024-01-25T05:42:56;3.17;;;1.60;;
5297;SDS011;14738;42.668;23.250;2024-01-25T05:45:22;3.20;;;1.80;;
5297;SDS011;14738;42.668;23.250;2024-01-25T05:47:48;1.60;;;1.60;;
5297;SDS011;14738;42.668;23.250;2024-01-25T05:50:14;1.70;;;1.60;;
5297;SDS011;14738;42.668;23.250;2024-01-25T05:52:39;1.10;;;1.10;;
5297;SDS011;14738;42.668;23.250;2024-01-25T05:55:05;1.90;;;1.43;;
5297;SDS011;14738;42.668;23.250;2024-01-25T05:57:31;3.47;;;1.90;;
5297;SDS011;14738;42.668;23.250;2024-01-25T06:00:00;7.63;;;2.20;;
5297;SDS011;14738;42.668;23.250;2024-01-25T06:02:25;2.50;;;1.50;;
5297;SDS011;14738;42.668;23.250;2024-01-25T06:04:51;2.00;;;1.90;;
5297;SDS011;14738;42.668;23.250;2024-01-25T06:07:16;3.80;;;1.77;;
5297;SDS011;14738;42.668;23.250;2024-01-25T06:09:41;1.20;;;1.20;;
5297;SDS011;14738;42.668;23.250;2024-01-25T06:12:07;3.10;;;1.87;;
5297;SDS011;14738;42.668;23.250;2024-01-25T06:14:32;1.80;;;1.70;;
5297;SDS011;14738;42.668;23.250;2024-01-25T06:16:58;1.80;;;1.70;;
5297;SDS011;14738;42.668;23.250;2024-01-25T06:19:23;2.37;;;1.80;;
5297;SDS011;14738;42.668;23.250;2024-01-25T06:21:49;3.03;;;1.70;;
5297;SDS011;14738;42.668;23.250;2024-01-25T06:24:16;2.10;;;1.93;;
5297;SDS011;14738;42.668;23.250;2024-01-25T06:26:41;2.50;;;2.27;;
5297;SDS011;14738;42.668;23.250;2024-01-25T06:29:07;4.73;;;2.20;;
5297;SDS011;14738;42.668;23.250;2024-01-25T06:31:32;3.40;;;2.20;;
5297;SDS011;14738;42.668;23.250;2024-01-25T06:33:57;2.27;;;1.63;;
5297;SDS011;14738;42.668;23.250;2024-01-25T06:36:23;5.80;;;2.80;;
5297;SDS011;14738;42.668;23.250;2024-01-25T06:38:48;3.17;;;2.43;;
5297;SDS011;14738;42.668;23.250;2024-01-25T06:41:14;2.60;;;2.27;;
5297;SDS011;14738;42.668;23.250;2024-01-25T06:43:40;9.50;;;4.93;;
5297;SDS011;14738;42.668;23.250;2024-01-25T06:46:06;20.63;;;9.77;;
5297;SDS011;14738;42.668;23.250;2024-01-25T06:48:32;10.17;;;6.40;;
5297;SDS011;14738;42.668;23.250;2024-01-25T06:50:58;3.83;;;3.53;;
5297;SDS011;14738;42.668;23.250;2024-01-25T06:53:23;4.73;;;3.10;;
5297;SDS011;14738;42.668;23.250;2024-01-25T06:55:48;4.27;;;3.90;;
5297;SDS011;14738;42.668;23.250;2024-01-25T06:58:14;3.77;;;3.47;;
5297;SDS011;14738;42.668;23.250;2024-01-25T07:00:39;4.00;;;3.70;;
5297;SDS011;14738;42.668;23.250;2024-01-25T07:03:07;3.23;;;3.03;;
5297;SDS011;14738;42.668;23.250;2024-01-25T07:05:32;4.47;;;2.70;;
5297;SDS011;14738;42.668;23.250;2024-01-25T07:07:59;3.30;;;2.10;;
5297;SDS011;14738;42.668;23.250;2024-01-25T07:10:24;3.83;;;2.83;;
5297;SDS011;14738;42.668;23.250;2024-01-25T07:12:51;2.47;;;1.80;;
5297;SDS011;14738;42.668;23.250;2024-01-25T07:15:17;1.87;;;1.57;;
5297;SDS011;14738;42.668;23.250;2024-01-25T07:17:43;3.07;;;2.10;;
5297;SDS011;14738;42.668;23.250;2024-01-25T07:20:08;2.27;;;1.80;;
5297;SDS011;14738;42.668;23.250;2024-01-25T07:22:34;4.70;;;3.00;;
5297;SDS011;14738;42.668;23.250;2024-01-25T07:25:00;3.40;;;2.60;;
5297;SDS011;14738;42.668;23.250;2024-01-25T07:27:25;4.77;;;2.63;;
5297;SDS011;14738;42.668;23.250;2024-01-25T07:29:51;5.40;;;2.80;;
5297;SDS011;14738;42.668;23.250;2024-01-25T07:32:16;3.23;;;2.00;;
5297;SDS011;14738;42.668;23.250;2024-01-25T07:34:43;3.67;;;2.10;;
5297;SDS011;14738;42.668;23.250;2024-01-25T07:37:09;3.33;;;2.30;;
5297;SDS011;14738;42.668;23.250;2024-01-25T07:39:36;3.07;;;2.33;;
5297;SDS011;14738;42.668;23.250;2024-01-25T07:42:01;3.13;;;2.80;;
5297;SDS011;14738;42.668;23.250;2024-01-25T07:44:27;2.33;;;2.10;;
5297;SDS011;14738;42.668;23.250;2024-01-25T07:46:52;2.20;;;2.10;;
5297;SDS011;14738;42.668;23.250;2024-01-25T07:49:17;7.23;;;2.40;;
5297;SDS011;14738;42.668;23.250;2024-01-25T07:51:43;3.23;;;2.40;;
5297;SDS011;14738;42.668;23.250;2024-01-25T07:54:08;3.90;;;2.23;;
5297;SDS011;14738;42.668;23.250;2024-01-25T07:56:34;4.77;;;2.27;;
5297;SDS011;14738;42.668;23.250;2024-01-25T07:58:59;3.00;;;2.40;;
5297;SDS011;14738;42.668;23.250;2024-01-25T08:01:25;6.83;;;2.67;;
5297;SDS011;14738;42.668;23.250;2024-01-25T08:03:50;6.57;;;2.10;;
5297;SDS011;14738;42.668;23.250;2024-01-25T08:06:17;3.30;;;2.60;;
5297;SDS011;14738;42.668;23.250;2024-01-25T08:08:43;5.40;;;3.60;;
5297;SDS011;14738;42.668;23.250;2024-01-25T08:11:08;3.50;;;2.30;;
5297;SDS011;14738;42.668;23.250;2024-01-25T08:13:33;3.60;;;2.80;;
5297;SDS011;14738;42.668;23.250;2024-01-25T08:15:59;5.23;;;2.43;;
5297;SDS011;14738;42.668;23.250;2024-01-25T08:18:24;3.13;;;2.30;;
5297;SDS011;14738;42.668;23.250;2024-01-25T08:20:52;9.00;;;2.20;;
5297;SDS011;14738;42.668;23.250;2024-01-25T08:23:17;2.67;;;1.93;;
5297;SDS011;14738;42.668;23.250;2024-01-25T08:25:43;5.50;;;2.63;;
5297;SDS011;14738;42.668;23.250;2024-01-25T08:28:09;4.40;;;3.50;;
5297;SDS011;14738;42.668;23.250;2024-01-25T08:30:34;5.00;;;2.20;;
5297;SDS011;14738;42.668;23.250;2024-01-25T08:33:00;4.10;;;2.10;;
5297;SDS011;14738;42.668;23.250;2024-01-25T08:35:25;6.07;;;2.13;;
5297;SDS011;14738;42.668;23.250;2024-01-25T08:37:51;8.87;;;2.90;;
5297;SDS011;14738;42.668;23.250;2024-01-25T08:40:16;4.43;;;2.67;;
5297;SDS011;14738;42.668;23.250;2024-01-25T08:42:42;2.83;;;2.37;;
5297;SDS011;14738;42.668;23.250;2024-01-25T08:45:07;5.13;;;2.73;;
5297;SDS011;14738;42.668;23.250;2024-01-25T08:47:36;4.20;;;2.57;;
5297;SDS011;14738;42.668;23.250;2024-01-25T08:50:02;3.17;;;2.70;;
5297;SDS011;14738;42.668;23.250;2024-01-25T08:52:28;2.67;;;2.47;;
5297;SDS011;14738;42.668;23.250;2024-01-25T08:54:54;3.23;;;2.30;;
5297;SDS011;14738;42.668;23.250;2024-01-25T08:57:19;5.60;;;2.40;;
5297;SDS011;14738;42.668;23.250;2024-01-25T08:59:45;4.60;;;2.37;;
5297;SDS011;14738;42.668;23.250;2024-01-25T09:02:11;2.30;;;2.10;;
5297;SDS011;14738;42.668;23.250;2024-01-25T09:04:36;3.60;;;2.17;;
5297;SDS011;14738;42.668;23.250;2024-01-25T09:07:02;2.53;;;2.33;;
5297;SDS011;14738;42.668;23.250;2024-01-25T09:09:27;3.97;;;2.80;;
5297;SDS011;14738;42.668;23.250;2024-01-25T09:11:53;5.23;;;3.00;;
5297;SDS011;14738;42.668;23.250;2024-01-25T09:14:19;4.37;;;2.93;;
5297;SDS011;14738;42.668;23.250;2024-01-25T09:16:44;7.27;;;3.97;;
5297;SDS011;14738;42.668;23.250;2024-01-25T09:19:10;9.13;;;8.13;;
5297;SDS011;14738;42.668;23.250;2024-01-25T09:21:37;4.20;;;3.03;;
5297;SDS011;14738;42.668;23.250;2024-01-25T09:24:04;7.00;;;2.37;;
5297;SDS011;14738;42.668;23.250;2024-01-25T09:26:30;5.70;;;3.13;;
5297;SDS011;14738;42.668;23.250;2024-01-25T09:28:55;5.13;;;2.60;;
5297;SDS011;14738;42.668;23.250;2024-01-25T09:31:20;4.70;;;2.60;;
5297;SDS011;14738;42.668;23.250;2024-01-25T09:33:46;2.83;;;2.40;;
5297;SDS011;14738;42.668;23.250;2024-01-25T09:36:11;5.57;;;2.20;;
5297;SDS011;14738;42.668;23.250;2024-01-25T09:38:36;4.97;;;2.50;;
5297;SDS011;14738;42.668;23.250;2024-01-25T09:41:02;3.67;;;2.67;;
5297;SDS011;14738;42.668;23.250;2024-01-25T09:43:27;5.87;;;2.63;;
5297;SDS011;14738;42.668;23.250;2024-01-25T09:45:53;9.47;;;3.83;;
5297;SDS011;14738;42.668;23.250;2024-01-25T09:48:22;7.93;;;4.93;;
5297;SDS011;14738;42.668;23.250;2024-01-25T09:50:48;6.90;;;2.67;;
5297;SDS011;14738;42.668;23.250;2024-01-25T09:53:17;4.73;;;3.50;;
5297;SDS011;14738;42.668;23.250;2024-01-25T09:55:48;6.63;;;3.37;;
5297;SDS011;14738;42.668;23.250;2024-01-25T09:58:40;4.93;;;3.30;;
5297;SDS011;14738;42.668;23.250;2024-01-25T10:01:13;4.97;;;3.13;;
5297;SDS011;14738;42.668;23.250;2024-01-25T10:03:43;6.77;;;3.93;;
5297;SDS011;14738;42.668;23.250;2024-01-25T10:06:14;5.80;;;2.83;;
5297;SDS011;14738;42.668;23.250;2024-01-25T10:08:40;4.03;;;2.50;;
5297;SDS011;14738;42.668;23.250;2024-01-25T10:11:07;4.07;;;3.00;;
5297;SDS011;14738;42.668;23.250;2024-01-25T10:13:42;6.13;;;2.90;;
5297;SDS011;14738;42.668;23.250;2024-01-25T10:16:15;2.73;;;2.20;;
5297;SDS011;14738;42.668;23.250;2024-01-25T10:18:42;5.10;;;2.87;;
5297;SDS011;14738;42.668;23.250;2024-01-25T10:21:12;3.20;;;2.90;;
5297;SDS011;14738;42.668;23.250;2024-01-25T10:23:39;6.03;;;3.73;;
5297;SDS011;14738;42.668;23.250;2024-01-25T10:26:05;6.20;;;2.60;;
5297;SDS011;14738;42.668;23.250;2024-01-25T10:28:30;5.30;;;3.30;;
5297;SDS011;14738;42.668;23.250;2024-01-25T10:30:59;3.63;;;3.17;;
5297;SDS011;14738;42.668;23.250;2024-01-25T10:33:26;3.17;;;2.63;;
5297;SDS011;14738;42.668;23.250;2024-01-25T10:35:55;5.43;;;3.00;;
5297;SDS011;14738;42.668;23.250;2024-01-25T10:38:34;3.80;;;3.03;;
5297;SDS011;14738;42.668;23.250;2024-01-25T10:41:01;6.43;;;3.10;;
5297;SDS011;14738;42.668;23.250;2024-01-25T10:43:28;3.70;;;2.73;;
5297;SDS011;14738;42.668;23.250;2024-01-25T10:45:56;4.00;;;2.80;;
5297;SDS011;14738;42.668;23.250;2024-01-25T10:48:23;3.40;;;2.77;;
5297;SDS011;14738;42.668;23.250;2024-01-25T10:50:53;6.03;;;2.57;;
5297;SDS011;14738;42.668;23.250;2024-01-25T10:53:19;5.80;;;3.23;;
5297;SDS011;14738;42.668;23.250;2024-01-25T10:55:46;6.77;;;2.87;;
5297;SDS011;14738;42.668;23.250;2024-01-25T10:58:12;4.17;;;2.80;;
5297;SDS011;14738;42.668;23.250;2024-01-25T11:00:38;5.33;;;3.27;;
5297;SDS011;14738;42.668;23.250;2024-01-25T11:03:04;4.83;;;3.30;;
5297;SDS011;14738;42.668;23.250;2024-01-25T11:05:31;5.70;;;2.93;;
5297;SDS011;14738;42.668;23.250;2024-01-25T11:07:57;3.77;;;3.00;;
5297;SDS011;14738;42.668;23.250;2024-01-25T11:10:26;5.23;;;3.33;;
5297;SDS011;14738;42.668;23.250;2024-01-25T11:12:56;4.10;;;2.83;;
5297;SDS011;14738;42.668;23.250;2024-01-25T11:15:44;6.90;;;3.00;;
5297;SDS011;14738;42.668;23.250;2024-01-25T11:18:08;5.90;;;3.33;;
5297;SDS011;14738;42.668;23.250;2024-01-25T11:20:35;4.97;;;2.80;;
5297;SDS011;14738;42.668;23.250;2024-01-25T11:23:02;6.57;;;3.03;;
5297;SDS011;14738;42.668;23.250;2024-01-25T11:25:32;4.77;;;3.60;;
5297;SDS011;14738;42.668;23.250;2024-01-25T11:27:59;6.40;;;3.53;;
5297;SDS011;14738;42.668;23.250;2024-01-25T11:30:26;4.30;;;2.87;;
5297;SDS011;14738;42.668;23.250;2024-01-25T11:32:53;4.60;;;2.70;;
5297;SDS011;14738;42.668;23.250;2024-01-25T11:35:18;3.90;;;3.43;;
5297;SDS011;14738;42.668;23.250;2024-01-25T11:37:45;3.90;;;3.00;;
5297;SDS011;14738;42.668;23.250;2024-01-25T11:40:11;8.27;;;6.00;;
5297;SDS011;14738;42.668;23.250;2024-01-25T11:42:38;8.23;;;5.57;;
5297;SDS011;14738;42.668;23.250;2024-01-25T11:45:05;10.83;;;5.27;;
5297;SDS011;14738;42.668;23.250;2024-01-25T11:47:33;9.97;;;5.50;;
5297;SDS011;14738;42.668;23.250;2024-01-25T11:49:59;9.37;;;4.50;;
5297;SDS011;14738;42.668;23.250;2024-01-25T11:52:25;13.30;;;7.90;;
5297;SDS011;14738;42.668;23.250;2024-01-25T11:54:51;11.03;;;6.60;;
5297;SDS011;14738;42.668;23.250;2024-01-25T11:57:17;8.07;;;4.10;;
5297;SDS011;14738;42.668;23.250;2024-01-25T11:59:42;5.07;;;4.37;;
5297;SDS011;14738;42.668;23.250;2024-01-25T12:02:11;9.50;;;4.20;;
5297;SDS011;14738;42.668;23.250;2024-01-25T12:04:39;12.27;;;6.40;;
5297;SDS011;14738;42.668;23.250;2024-01-25T12:07:04;7.40;;;3.63;;
5297;SDS011;14738;42.668;23.250;2024-01-25T12:09:30;8.30;;;4.63;;
5297;SDS011;14738;42.668;23.250;2024-01-25T12:11:55;7.60;;;3.50;;
5297;SDS011;14738;42.668;23.250;2024-01-25T12:14:21;6.07;;;4.00;;
5297;SDS011;14738;42.668;23.250;2024-01-25T12:16:49;7.30;;;5.67;;
5297;SDS011;14738;42.668;23.250;2024-01-25T12:19:14;10.40;;;6.23;;
5297;SDS011;14738;42.668;23.250;2024-01-25T12:21:43;12.63;;;5.77;;
5297;SDS011;14738;42.668;23.250;2024-01-25T12:24:09;15.10;;;7.73;;
5297;SDS011;14738;42.668;23.250;2024-01-25T12:26:35;13.90;;;4.40;;
5297;SDS011;14738;42.668;23.250;2024-01-25T12:29:01;7.50;;;4.57;;
5297;SDS011;14738;42.668;23.250;2024-01-25T12:31:28;11.93;;;5.23;;
5297;SDS011;14738;42.668;23.250;2024-01-25T12:33:53;8.50;;;4.20;;
5297;SDS011;14738;42.668;23.250;2024-01-25T12:36:19;11.23;;;4.03;;
5297;SDS011;14738;42.668;23.250;2024-01-25T12:38:44;12.30;;;7.87;;
5297;SDS011;14738;42.668;23.250;2024-01-25T12:41:09;12.10;;;6.87;;
5297;SDS011;14738;42.668;23.250;2024-01-25T12:43:35;11.50;;;4.50;;
5297;SDS011;14738;42.668;23.250;2024-01-25T12:46:00;10.40;;;4.30;;
5297;SDS011;14738;42.668;23.250;2024-01-25T12:48:26;4.70;;;3.20;;
5297;SDS011;14738;42.668;23.250;2024-01-25T12:50:51;6.83;;;3.40;;
5297;SDS011;14738;42.668;23.250;2024-01-25T12:53:17;8.30;;;3.30;;
5297;SDS011;14738;42.668;23.250;2024-01-25T12:55:42;3.90;;;3.17;;
5297;SDS011;14738;42.668;23.250;2024-01-25T12:58:09;6.30;;;3.50;;
5297;SDS011;14738;42.668;23.250;2024-01-25T13:00:34;7.27;;;3.67;;
5297;SDS011;14738;42.668;23.250;2024-01-25T13:03:00;4.37;;;3.20;;
5297;SDS011;14738;42.668;23.250;2024-01-25T13:05:28;5.70;;;3.60;;
5297;SDS011;14738;42.668;23.250;2024-01-25T13:07:54;4.13;;;2.63;;
5297;SDS011;14738;42.668;23.250;2024-01-25T13:10:20;4.57;;;2.90;;
5297;SDS011;14738;42.668;23.250;2024-01-25T13:12:45;5.43;;;2.67;;
5297;SDS011;14738;42.668;23.250;2024-01-25T13:15:11;2.80;;;2.30;;
5297;SDS011;14738;42.668;23.250;2024-01-25T13:17:36;8.53;;;2.93;;
5297;SDS011;14738;42.668;23.250;2024-01-25T13:20:05;4.90;;;2.50;;
5297;SDS011;14738;42.668;23.250;2024-01-25T13:22:32;3.57;;;2.60;;
5297;SDS011;14738;42.668;23.250;2024-01-25T13:28:20;7.30;;;2.47;;
5297;SDS011;14738;42.668;23.250;2024-01-25T13:30:45;5.00;;;2.87;;
5297;SDS011;14738;42.668;23.250;2024-01-25T13:33:10;6.67;;;3.10;;
5297;SDS011;14738;42.668;23.250;2024-01-25T13:35:36;10.17;;;3.47;;
5297;SDS011;14738;42.668;23.250;2024-01-25T13:38:01;8.33;;;2.60;;
5297;SDS011;14738;42.668;23.250;2024-01-25T13:40:27;4.70;;;3.37;;
5297;SDS011;14738;42.668;23.250;2024-01-25T13:42:52;5.57;;;3.30;;
5297;SDS011;14738;42.668;23.250;2024-01-25T13:45:19;5.97;;;3.53;;
5297;SDS011;14738;42.668;23.250;2024-01-25T13:47:45;6.93;;;3.23;;
5297;SDS011;14738;42.668;23.250;2024-01-25T13:50:10;6.93;;;2.90;;
5297;SDS011;14738;42.668;23.250;2024-01-25T13:52:36;5.13;;;3.23;;
5297;SDS011;14738;42.668;23.250;2024-01-25T13:55:01;5.40;;;3.33;;
5297;SDS011;14738;42.668;23.250;2024-01-25T13:57:27;6.33;;;4.03;;
5297;SDS011;14738;42.668;23.250;2024-01-25T13:59:52;5.80;;;3.40;;
5297;SDS011;14738;42.668;23.250;2024-01-25T14:02:17;5.93;;;3.63;;
5297;SDS011;14738;42.668;23.250;2024-01-25T14:04:43;5.60;;;3.60;;
5297;SDS011;14738;42.668;23.250;2024-01-25T14:07:08;7.00;;;4.40;;
5297;SDS011;14738;42.668;23.250;2024-01-25T14:09:34;5.83;;;3.53;;
5297;SDS011;14738;42.668;23.250;2024-01-25T14:11:59;9.43;;;4.60;;
5297;SDS011;14738;42.668;23.250;2024-01-25T14:14:25;7.03;;;3.90;;
5297;SDS011;14738;42.668;23.250;2024-01-25T14:16:50;7.63;;;4.10;;
5297;SDS011;14738;42.668;23.250;2024-01-25T14:19:15;7.30;;;3.63;;
5297;SDS011;14738;42.668;23.250;2024-01-25T14:21:42;7.43;;;3.50;;
5297;SDS011;14738;42.668;23.250;2024-01-25T14:24:07;7.57;;;3.93;;
5297;SDS011;14738;42.668;23.250;2024-01-25T14:26:33;9.03;;;4.13;;
5297;SDS011;14738;42.668;23.250;2024-01-25T14:28:58;12.73;;;2.97;;
5297;SDS011;14738;42.668;23.250;2024-01-25T14:31:23;4.17;;;3.80;;
5297;SDS011;14738;42.668;23.250;2024-01-25T14:33:49;6.33;;;3.80;;
5297;SDS011;14738;42.668;23.250;2024-01-25T14:36:14;6.33;;;3.67;;
5297;SDS011;14738;42.668;23.250;2024-01-25T14:38:40;9.27;;;3.67;;
5297;SDS011;14738;42.668;23.250;2024-01-25T14:41:09;5.83;;;3.07;;